Time;durP1;ratioP1;P1;durP2;ratioP2;P2;SDS_P1;SDS_P2;PMS_P1;PMS_P2;Temp;Humidity;BMP_temperature;BMP_pressure;BME280_temperature;BME280_humidity;BME280_pressure;Samples;Min_cycle;Max_cycle;Signal;HPM_P1;HPM_P2
2021/04/23 00:41:08;;;;;;;24.77;9.48;;;8.80;65.20;;;;;;4808074;29;20479;-91
2021/04/23 00:43:37;;;;;;;37.00;11.85;;;8.80;65.10;;;;;;4786913;29;20046;-91
2021/04/23 00:46:04;;;;;;;40.72;12.20;;;8.90;65.00;;;;;;4794667;29;20042;-90
2021/04/23 00:48:43;;;;;;;38.35;13.63;;;8.90;64.70;;;;;;4800759;29;20034;-93
2021/04/23 00:51:12;;;;;;;39.78;12.38;;;8.90;64.60;;;;;;4798963;29;20038;-91
2021/04/23 00:53:42;;;;;;;33.97;11.63;;;9.00;64.50;;;;;;4802615;29;20052;-91
2021/04/23 00:56:14;;;;;;;34.75;11.55;;;9.00;64.40;;;;;;4782028;29;20044;-91
2021/04/23 00:58:41;;;;;;;42.20;12.77;;;9.00;64.30;;;;;;4787133;29;20061;-91
2021/04/23 01:01:17;;;;;;;37.95;11.65;;;9.10;64.20;;;;;;4797106;29;20037;-90
2021/04/23 01:03:44;;;;;;;36.05;13.35;;;9.10;64.00;;;;;;4802515;29;20065;-91
2021/04/23 01:06:26;;;;;;;37.72;11.57;;;9.10;63.80;;;;;;4827979;29;20041;-91
2021/04/23 01:08:53;;;;;;;34.40;10.70;;;9.20;63.80;;;;;;4817969;29;20037;-90
2021/04/23 01:11:21;;;;;;;38.28;12.43;;;9.20;63.90;;;;;;4799104;29;20109;-90
2021/04/23 01:13:47;;;;;;;17.88;5.88;;;9.10;64.10;;;;;;4808424;29;20058;-92
2021/04/23 01:16:18;;;;;;;34.92;13.05;;;9.20;64.20;;;;;;4798902;29;20048;-91
2021/04/23 01:18:44;;;;;;;36.00;12.25;;;9.20;64.20;;;;;;4821736;29;20048;-90
2021/04/23 01:24:44;;;;;;;17.10;6.72;;;9.30;63.90;;;;;;4784582;29;20151;-91
2021/04/23 01:31:22;;;;;;;34.97;12.45;;;9.30;63.80;;;;;;4784061;30;20070;-92
2021/04/23 01:33:54;;;;;;;33.78;12.07;;;9.30;63.90;;;;;;4738426;30;20042;-92
2021/04/23 01:36:21;;;;;;;24.15;9.82;;;9.40;63.90;;;;;;4756780;30;20113;-91
2021/04/23 01:38:48;;;;;;;15.32;7.05;;;9.40;63.70;;;;;;4727202;30;20089;-90
2021/04/23 01:41:15;;;;;;;16.55;7.10;;;9.40;63.60;;;;;;4755462;30;20130;-91
2021/04/23 01:43:41;;;;;;;8.07;4.72;;;9.40;63.90;;;;;;4738981;30;20066;-91
2021/04/23 01:46:07;;;;;;;17.50;5.93;;;9.30;64.20;;;;;;4738831;30;20046;-90
2021/04/23 01:48:34;;;;;;;21.90;8.43;;;9.30;64.30;;;;;;4724806;30;20095;-90
2021/04/23 01:51:02;;;;;;;;;;;9.30;64.70;;;;;;4724206;30;20079;-91
2021/04/23 01:53:28;;;;;;;22.27;9.13;;;9.30;64.80;;;;;;4766750;30;20026;-90
2021/04/23 01:55:55;;;;;;;30.42;8.65;;;9.30;64.70;;;;;;4766088;29;20042;-91
2021/04/23 01:58:21;;;;;;;34.15;11.25;;;9.30;64.60;;;;;;4789670;29;20046;-92
2021/04/23 02:00:50;;;;;;;17.48;6.50;;;9.30;64.60;;;;;;4788323;29;20421;-92
2021/04/23 02:03:17;;;;;;;31.33;11.90;;;9.30;64.60;;;;;;4788848;29;20060;-92
2021/04/23 02:05:43;;;;;;;;;;;9.30;64.80;;;;;;4804530;29;20034;-91
2021/04/23 02:08:12;;;;;;;23.80;9.07;;;9.40;65.00;;;;;;4784691;29;20373;-90
2021/04/23 02:11:10;;;;;;;14.52;5.53;;;9.40;65.00;;;;;;4804871;29;20044;-90
2021/04/23 02:13:36;;;;;;;14.88;5.47;;;9.40;65.00;;;;;;4810535;29;20525;-91
2021/04/23 02:16:07;;;;;;;18.52;6.10;;;9.40;65.10;;;;;;4806054;29;20057;-93
2021/04/23 02:18:34;;;;;;;15.45;4.20;;;9.40;65.00;;;;;;4800818;29;20128;-91
2021/04/23 02:21:00;;;;;;;23.35;7.00;;;9.50;65.00;;;;;;4784068;29;20048;-90
2021/04/23 02:23:27;;;;;;;16.65;7.72;;;9.50;64.90;;;;;;4774253;29;20065;-93
2021/04/23 02:25:53;;;;;;;32.63;10.27;;;9.60;64.90;;;;;;4783425;29;20124;-89
2021/04/23 02:28:20;;;;;;;46.00;13.80;;;9.60;64.80;;;;;;4802586;29;20109;-91
2021/04/23 02:31:09;;;;;;;34.65;10.85;;;9.70;64.70;;;;;;4802414;29;20038;-91
2021/04/23 02:33:36;;;;;;;16.38;6.60;;;9.80;64.50;;;;;;4801280;29;20593;-91
2021/04/23 02:36:03;;;;;;;54.45;11.88;;;9.90;64.30;;;;;;4783701;29;20053;-90
2021/04/23 02:38:29;;;;;;;;;;;9.90;64.10;;;;;;4805525;29;20127;-91
2021/04/23 02:40:56;;;;;;;22.75;6.55;;;9.90;64.20;;;;;;4767764;29;19943;-94
2021/04/23 02:43:27;;;;;;;27.83;8.32;;;9.90;63.90;;;;;;4789034;29;20053;-93
2021/04/23 02:45:55;;;;;;;37.05;11.65;;;9.90;64.00;;;;;;4783720;29;20049;-93
2021/04/23 02:48:23;;;;;;;29.55;7.07;;;9.90;64.10;;;;;;4790493;29;20034;-94
2021/04/23 02:50:55;;;;;;;44.17;11.95;;;10.00;64.20;;;;;;4766174;29;20114;-94
2021/04/23 02:53:34;;;;;;;39.22;11.35;;;10.00;64.20;;;;;;4796219;29;20132;-95
2021/04/23 03:08:15;;;;;;;42.95;8.02;;;11.20;62.10;;;;;;4823782;29;20061;-92
2021/04/23 03:11:40;;;;;;;;;;;;;;;;;;;;;
2021/04/23 03:30:17;;;;;;;50.20;11.43;;;11.50;59.80;;;;;;5595452;24;20348;-93
2021/04/23 03:32:49;;;;;;;39.92;10.63;;;11.50;59.60;;;;;;4760940;30;20061;-93
2021/04/23 03:35:18;;;;;;;27.88;9.55;;;11.50;59.50;;;;;;5055412;24;20054;-92
2021/04/23 03:39:02;;;;;;;35.13;10.02;;;11.70;59.90;;;;;;4798004;29;20050;-94
2021/04/23 03:41:31;;;;;;;46.40;11.13;;;11.90;59.60;;;;;;4790320;29;20046;-91
2021/04/23 03:43:58;;;;;;;47.70;10.05;;;12.40;60.60;;;;;;4777912;29;20042;-90
2021/04/23 03:46:26;;;;;;;37.58;9.30;;;12.80;59.30;;;;;;4770160;29;20057;-91
2021/04/23 03:48:52;;;;;;;43.42;10.18;;;13.10;58.30;;;;;;4780100;29;20053;-90
2021/04/23 03:51:19;;;;;;;45.58;11.00;;;13.40;56.90;;;;;;4773643;29;20522;-90
2021/04/23 03:53:46;;;;;;;37.80;9.23;;;13.60;56.00;;;;;;4772603;29;20050;-94
2021/04/23 03:56:12;;;;;;;;;;;13.80;55.10;;;;;;4767532;29;20046;-91
2021/04/23 03:58:40;;;;;;;35.80;9.70;;;14.00;54.00;;;;;;4759377;29;19933;-94
2021/04/23 04:01:52;;;;;;;47.92;10.55;;;14.10;52.60;;;;;;4773800;29;20110;-96
2021/04/23 04:04:23;;;;;;;35.42;9.70;;;14.10;52.60;;;;;;4788338;29;20067;-96
2021/04/23 04:07:15;;;;;;;45.60;10.95;;;14.20;52.10;;;;;;4798557;29;20054;-95
2021/04/23 04:09:49;;;;;;;43.00;11.27;;;14.10;51.50;;;;;;4799630;29;20118;-96
2021/04/23 04:12:17;;;;;;;46.20;9.65;;;14.20;51.90;;;;;;4775998;29;20116;-93
2021/04/23 04:15:51;;;;;;;39.25;10.15;;;14.40;52.00;;;;;;4729297;30;20059;-96
2021/04/23 05:12:01;;;;;;;50.22;9.27;;;24.70;29.50;;;;;;5039613;24;20050;-95
2021/04/23 05:14:34;;;;;;;54.17;11.23;;;24.90;28.80;;;;;;4812357;29;20053;-96
2021/04/23 05:17:14;;;;;;;62.65;10.85;;;24.90;27.90;;;;;;4818318;29;20045;-95
2021/04/23 05:19:41;;;;;;;89.70;14.27;;;24.90;27.40;;;;;;4830597;29;20060;-94
2021/04/23 05:22:12;;;;;;;;;;;25.10;27.60;;;;;;4787034;29;20037;-95
2021/04/23 05:24:43;;;;;;;69.63;11.60;;;25.60;28.00;;;;;;4806782;29;19936;-96
2021/04/23 05:27:09;;;;;;;61.03;10.80;;;26.10;26.60;;;;;;4818560;29;20044;-93
2021/04/23 05:29:36;;;;;;;57.05;11.00;;;26.50;26.00;;;;;;4794990;29;20073;-93
2021/04/23 05:32:04;;;;;;;56.70;11.50;;;26.70;25.40;;;;;;4813417;29;20049;-94
2021/04/23 05:34:31;;;;;;;53.15;11.27;;;27.00;25.10;;;;;;4799191;29;20045;-95
2021/04/23 05:37:01;;;;;;;65.55;11.50;;;27.50;24.70;;;;;;4800279;29;20052;-94
2021/04/23 05:39:28;;;;;;;53.63;10.25;;;28.40;23.90;;;;;;4809166;29;20038;-93
2021/04/23 05:41:55;;;;;;;58.97;11.73;;;29.30;23.00;;;;;;4808044;29;20124;-93
2021/04/23 05:44:21;;;;;;;41.75;10.38;;;30.10;22.20;;;;;;4792619;29;20053;-92
2021/04/23 05:46:48;;;;;;;54.47;10.88;;;31.00;21.00;;;;;;4807998;29;20068;-91
2021/04/23 05:49:15;;;;;;;52.53;10.35;;;31.80;20.10;;;;;;4793133;29;20038;-93
2021/04/23 05:51:41;;;;;;;60.60;11.57;;;32.30;19.10;;;;;;4792399;29;20082;-93
2021/04/23 05:54:08;;;;;;;71.15;12.27;;;32.50;18.60;;;;;;4808529;29;20100;-94
2021/04/23 05:56:35;;;;;;;51.88;10.15;;;33.00;18.10;;;;;;4793102;29;20047;-93
2021/04/23 05:59:01;;;;;;;53.90;10.90;;;33.60;17.20;;;;;;4805586;29;20045;-92
2021/04/23 06:01:28;;;;;;;63.30;11.60;;;34.10;16.70;;;;;;4793421;29;20055;-91
2021/04/23 06:04:01;;;;;;;52.90;10.50;;;34.50;16.00;;;;;;4813234;29;20146;-95
2021/04/23 06:06:28;;;;;;;58.58;12.48;;;34.70;15.20;;;;;;4811525;29;20053;-96
2021/04/23 06:08:56;;;;;;;53.85;10.88;;;34.80;15.00;;;;;;4794184;29;20049;-95
2021/04/23 06:11:23;;;;;;;54.28;11.23;;;35.20;14.70;;;;;;4798608;29;20052;-95
2021/04/23 06:13:50;;;;;;;65.45;11.73;;;35.50;14.30;;;;;;4770598;29;20056;-94
2021/04/23 06:16:18;;;;;;;61.97;10.88;;;35.90;14.10;;;;;;4816209;29;20095;-94
2021/04/23 06:18:45;;;;;;;61.88;12.07;;;36.30;13.70;;;;;;4784283;29;20046;-94
2021/04/23 06:21:12;;;;;;;66.47;13.70;;;36.50;13.10;;;;;;4795286;29;20429;-94
2021/04/23 06:23:39;;;;;;;62.13;12.30;;;36.50;12.80;;;;;;4814006;29;20052;-93
2021/04/23 06:26:06;;;;;;;64.28;12.57;;;36.30;12.70;;;;;;4790225;29;20053;-96
2021/04/23 06:28:45;;;;;;;64.30;12.70;;;35.50;12.70;;;;;;4797523;29;20045;-94
2021/04/23 06:31:13;;;;;;;71.65;12.82;;;35.00;13.30;;;;;;4789837;29;20153;-95
2021/04/23 06:33:45;;;;;;;80.40;13.80;;;35.10;13.30;;;;;;4796345;29;20037;-93
2021/04/23 06:36:12;;;;;;;98.35;15.23;;;35.40;13.00;;;;;;4809065;29;20093;-93
2021/04/23 06:38:38;;;;;;;79.78;13.73;;;35.70;12.80;;;;;;4794640;29;20053;-94
2021/04/23 06:41:07;;;;;;;82.25;14.20;;;36.00;13.00;;;;;;4791958;29;20056;-94
2021/04/23 06:43:34;;;;;;;76.82;14.20;;;36.70;12.60;;;;;;4812094;29;20037;-94
2021/04/23 06:46:01;;;;;;;65.90;13.05;;;37.50;12.20;;;;;;4792716;29;20121;-93
2021/04/23 06:48:27;;;;;;;75.15;13.73;;;38.00;12.60;;;;;;4816192;29;20041;-94
2021/04/23 06:50:54;;;;;;;75.47;13.75;;;38.40;11.00;;;;;;4797911;29;20118;-94
2021/04/23 06:53:21;;;;;;;75.95;14.60;;;38.70;10.50;;;;;;4790543;29;20037;-94
2021/04/23 06:55:51;;;;;;;75.55;13.85;;;38.90;10.20;;;;;;4787351;29;20046;-94
2021/04/23 06:58:17;;;;;;;69.13;13.55;;;39.10;9.90;;;;;;4781190;29;20056;-93
2021/04/23 07:00:44;;;;;;;96.55;17.05;;;38.90;9.70;;;;;;4766706;29;20064;-93
2021/04/23 07:03:11;;;;;;;85.30;15.45;;;38.90;10.10;;;;;;4805773;29;20086;-93
2021/04/23 07:05:43;;;;;;;88.95;16.42;;;39.20;9.70;;;;;;4776693;29;20042;-96
2021/04/23 07:08:12;;;;;;;87.05;19.13;;;39.60;9.70;;;;;;4805846;29;20059;-93
2021/04/23 07:10:39;;;;;;;90.45;20.70;;;39.90;9.30;;;;;;4785248;29;20042;-93
2021/04/23 07:13:05;;;;;;;90.75;19.98;;;39.80;9.00;;;;;;4789500;29;20052;-93
2021/04/23 07:15:34;;;;;;;84.82;19.50;;;39.70;8.60;;;;;;4822529;29;20573;-92
2021/04/23 07:18:02;;;;;;;286.02;31.05;;;39.30;9.40;;;;;;4795251;29;20063;-93
2021/04/23 07:20:29;;;;;;;102.43;21.55;;;39.20;9.30;;;;;;4800244;29;20038;-92
2021/04/23 07:22:55;;;;;;;96.95;21.60;;;39.40;8.90;;;;;;4788867;29;20041;-93
2021/04/23 07:25:22;;;;;;;85.22;21.40;;;39.80;9.00;;;;;;4793293;29;20058;-92
2021/04/23 07:27:49;;;;;;;90.18;20.63;;;40.10;8.30;;;;;;4789657;29;20042;-93
2021/04/23 07:30:19;;;;;;;85.32;20.08;;;40.00;8.10;;;;;;4776392;29;20102;-92
2021/04/23 07:32:48;;;;;;;89.85;18.88;;;39.90;8.40;;;;;;4777953;29;20090;-94
2021/04/23 07:35:15;;;;;;;150.38;25.27;;;39.90;8.20;;;;;;4785143;29;20037;-92
2021/04/23 07:37:42;;;;;;;90.80;23.05;;;40.20;8.00;;;;;;4773725;29;20045;-93
2021/04/23 07:40:11;;;;;;;95.78;26.08;;;40.50;7.80;;;;;;4783111;29;20530;-91
2021/04/23 07:42:37;;;;;;;97.72;24.88;;;40.50;7.90;;;;;;4773671;29;20038;-94
2021/04/23 07:45:07;;;;;;;91.05;24.30;;;40.50;7.90;;;;;;4783079;29;20108;-94
2021/04/23 07:47:33;;;;;;;113.43;27.15;;;40.40;7.80;;;;;;4775616;29;20112;-93
2021/04/23 07:50:01;;;;;;;100.85;27.05;;;39.60;8.30;;;;;;4799365;29;20173;-95
2021/04/23 07:52:28;;;;;;;95.03;26.23;;;38.90;9.00;;;;;;4774546;29;20046;-94
2021/04/23 07:54:57;;;;;;;92.80;25.67;;;38.60;9.20;;;;;;4786558;29;20053;-92
2021/04/23 07:57:24;;;;;;;89.32;25.40;;;38.20;9.20;;;;;;4775729;29;20102;-93
2021/04/23 07:59:51;;;;;;;84.50;24.02;;;37.80;9.50;;;;;;4805110;29;20050;-92
2021/04/23 08:02:17;;;;;;;100.30;25.58;;;37.40;10.30;;;;;;4773220;29;20041;-92
2021/04/23 08:04:44;;;;;;;86.18;23.55;;;37.20;10.40;;;;;;4788092;29;20038;-93
2021/04/23 08:07:11;;;;;;;73.28;22.45;;;37.10;10.40;;;;;;4786680;29;20042;-93
2021/04/23 08:09:39;;;;;;;92.00;23.38;;;37.00;10.60;;;;;;4774443;29;20053;-92
2021/04/23 08:12:08;;;;;;;92.20;21.17;;;37.20;10.80;;;;;;4799677;29;20093;-92
2021/04/23 08:14:35;;;;;;;89.80;22.73;;;37.30;10.50;;;;;;4805425;29;20053;-92
2021/04/23 08:17:02;;;;;;;103.70;23.88;;;37.30;10.50;;;;;;4781677;29;20041;-92
2021/04/23 08:19:28;;;;;;;86.30;19.80;;;37.20;10.50;;;;;;4801660;29;20102;-91
2021/04/23 08:21:54;;;;;;;88.30;19.52;;;37.30;10.70;;;;;;4798554;29;20046;-90
2021/04/23 08:24:21;;;;;;;91.43;19.30;;;37.50;10.20;;;;;;4789459;29;20046;-92
2021/04/23 08:26:47;;;;;;;83.80;18.42;;;37.60;10.10;;;;;;4761237;29;20041;-90
2021/04/23 08:29:14;;;;;;;90.53;18.52;;;38.00;9.70;;;;;;4786773;29;20057;-91
2021/04/23 08:31:41;;;;;;;90.38;17.98;;;38.50;9.60;;;;;;4792287;29;20100;-90
2021/04/23 08:34:08;;;;;;;85.85;17.23;;;38.80;9.00;;;;;;4815343;29;20033;-91
2021/04/23 08:36:34;;;;;;;85.82;16.52;;;39.00;8.90;;;;;;4775688;29;20057;-89
2021/04/23 08:39:01;;;;;;;86.43;17.80;;;39.00;8.60;;;;;;4779193;29;20048;-93
2021/04/23 08:41:28;;;;;;;92.20;17.38;;;38.90;9.10;;;;;;4768002;29;20094;-92
2021/04/23 08:43:54;;;;;;;82.40;16.60;;;38.80;9.10;;;;;;4772593;29;20072;-92
2021/04/23 08:46:21;;;;;;;89.25;18.35;;;38.70;9.20;;;;;;4791663;29;20069;-92
2021/04/23 08:48:49;;;;;;;61.90;14.80;;;38.50;9.40;;;;;;4759974;29;20465;-93
2021/04/23 08:51:19;;;;;;;70.75;14.35;;;38.30;9.60;;;;;;4768163;29;20061;-92
2021/04/23 08:53:46;;;;;;;75.35;14.10;;;38.10;9.40;;;;;;4800277;29;20103;-93
2021/04/23 08:59:29;;;;;;;88.15;14.77;;;37.30;10.00;;;;;;4878543;24;20019;-94
2021/04/23 09:01:56;;;;;;;93.55;14.68;;;37.30;10.20;;;;;;4786590;29;20060;-94
2021/04/23 09:04:23;;;;;;;159.23;18.80;;;37.70;10.10;;;;;;4814684;29;20030;-95
2021/04/23 09:07:03;;;;;;;84.53;14.75;;;37.80;9.70;;;;;;4787241;29;20101;-95
2021/04/23 09:15:26;;;;;;;98.72;15.93;;;38.10;9.50;;;;;;5787613;23;20020;-96
2021/04/23 09:18:25;;;;;;;76.60;13.82;;;38.10;9.20;;;;;;4787707;29;20040;-94
2021/04/23 09:21:04;;;;;;;80.55;15.27;;;38.00;9.20;;;;;;4803986;29;20042;-96
2021/04/23 09:26:49;;;;;;;63.55;12.18;;;37.60;10.00;;;;;;5622728;24;20054;-96
2021/04/23 09:29:50;;;;;;;76.57;12.70;;;37.70;10.30;;;;;;4824514;29;20049;-94
2021/04/23 09:32:31;;;;;;;98.15;14.25;;;37.90;9.60;;;;;;4828735;29;20129;-94
2021/04/23 09:37:59;;;;;;;76.25;12.73;;;38.60;8.90;;;;;;4834308;24;20060;-96
2021/04/23 09:43:37;;;;;;;68.88;12.55;;;38.60;8.70;;;;;;4817275;29;20038;-95
2021/04/23 09:46:03;;;;;;;62.08;12.43;;;38.60;8.60;;;;;;4804839;29;20038;-96
2021/04/23 09:48:30;;;;;;;64.00;11.65;;;38.60;8.80;;;;;;4805821;29;20022;-93
2021/04/23 09:50:58;;;;;;;56.75;12.65;;;38.20;8.80;;;;;;4785069;29;20037;-95
2021/04/23 09:53:32;;;;;;;65.82;12.68;;;37.80;9.00;;;;;;4803836;29;20051;-96
2021/04/23 09:56:33;;;;;;;62.47;12.60;;;37.10;9.30;;;;;;4797906;29;20556;-95
2021/04/23 09:59:29;;;;;;;46.13;11.48;;;36.70;10.00;;;;;;4800853;29;20124;-95
2021/04/23 10:02:03;;;;;;;56.33;11.57;;;36.30;10.00;;;;;;4818921;29;20108;-96
2021/04/23 10:04:35;;;;;;;59.10;12.23;;;35.80;10.50;;;;;;4788718;29;20067;-94
2021/04/23 10:07:21;;;;;;;48.75;11.13;;;35.30;11.10;;;;;;4796710;29;20030;-95
2021/04/23 10:10:18;;;;;;;44.83;10.35;;;34.80;11.60;;;;;;4799584;29;20045;-96
2021/04/23 10:13:16;;;;;;;43.33;9.93;;;34.00;11.70;;;;;;4782598;29;20572;-96
2021/04/23 10:15:44;;;;;;;47.30;9.82;;;33.20;12.00;;;;;;4829248;29;20033;-96
2021/04/23 10:18:13;;;;;;;51.92;9.85;;;32.30;12.90;;;;;;4818159;29;20034;-95
2021/04/23 10:24:22;;;;;;;51.08;10.00;;;31.10;14.20;;;;;;5087660;24;20048;-96
2021/04/23 10:26:58;;;;;;;40.50;8.63;;;30.40;14.40;;;;;;4795902;29;20061;-95
2021/04/23 10:29:25;;;;;;;55.15;9.25;;;29.80;14.80;;;;;;4774186;29;20053;-95
2021/04/23 10:32:16;;;;;;;45.22;8.27;;;29.50;15.50;;;;;;4803700;29;20030;-96
2021/04/23 10:34:44;;;;;;;45.13;10.65;;;29.20;15.90;;;;;;4818429;29;20049;-96
2021/04/23 10:38:28;;;;;;;46.05;11.07;;;28.90;16.10;;;;;;4891664;24;20119;31
2021/04/23 10:43:59;;;;;;;34.17;7.88;;;28.20;17.00;;;;;;4808975;29;20053;-96
2021/04/23 10:46:30;;;;;;;36.17;8.02;;;28.00;16.90;;;;;;4763201;30;20499;-95
2021/04/23 10:49:09;;;;;;;37.08;7.93;;;27.70;17.30;;;;;;4765332;30;20066;-96
2021/04/23 10:51:45;;;;;;;50.25;9.18;;;27.50;17.60;;;;;;4766785;30;20088;-95
2021/04/23 10:54:16;;;;;;;39.78;7.50;;;27.30;17.70;;;;;;4762948;30;20070;-96
2021/04/23 10:56:58;;;;;;;43.00;8.23;;;27.20;18.10;;;;;;4758371;30;20114;-94
2021/04/23 10:59:34;;;;;;;43.13;9.15;;;27.00;18.50;;;;;;4742843;30;20050;-96
2021/04/23 11:02:14;;;;;;;42.75;8.70;;;26.90;18.40;;;;;;4758103;30;20035;-95
2021/04/23 11:04:59;;;;;;;37.00;7.80;;;26.70;18.50;;;;;;4757456;30;20042;-95
2021/04/23 11:07:25;;;;;;;37.10;8.40;;;26.40;18.80;;;;;;4758515;30;20423;-95
2021/04/23 11:10:02;;;;;;;38.67;8.75;;;26.30;19.10;;;;;;4760136;30;20050;-96
2021/04/23 11:12:40;;;;;;;36.05;8.70;;;26.10;19.10;;;;;;4760980;30;20034;-96
2021/04/23 11:15:21;;;;;;;51.25;10.55;;;25.90;19.30;;;;;;4760939;30;20255;-96
2021/04/23 11:18:38;;;;;;;42.70;8.43;;;25.80;19.50;;;;;;4765522;30;20062;-95
2021/04/23 11:21:31;;;;;;;44.33;8.25;;;25.70;19.50;;;;;;4686949;30;20596;-94
2021/04/23 11:24:35;;;;;;;37.45;7.47;;;25.60;19.50;;;;;;4760157;30;20161;-94
2021/04/23 11:32:54;;;;;;;30.65;6.82;;;25.40;19.60;;;;;;4954033;24;20064;-96
2021/04/23 11:35:26;;;;;;;34.17;7.28;;;25.40;19.60;;;;;;4811126;29;20107;-96
2021/04/23 11:37:58;;;;;;;33.63;6.95;;;25.40;19.40;;;;;;4793571;29;20050;-96
2021/04/23 11:43:16;;;;;;;30.52;6.82;;;25.30;18.80;;;;;;1707729;24;20335;-96
2021/04/23 11:45:59;;;;;;;31.50;8.05;;;25.20;18.70;;;;;;4805537;29;20549;-95
2021/04/23 11:48:31;;;;;;;35.08;6.03;;;25.10;18.70;;;;;;4784264;29;20034;-96
2021/04/23 11:51:35;;;;;;;44.78;8.50;;;24.80;19.30;;;;;;4785625;29;20038;-96
2021/04/23 11:59:00;;;;;;;29.50;5.72;;;24.20;20.70;;;;;;5726385;24;21237;-96
2021/04/23 12:01:43;;;;;;;37.70;6.90;;;24.00;21.00;;;;;;4869071;24;20048;-93
2021/04/23 12:31:50;;;;;;;40.28;6.45;;;22.60;22.60;;;;;;3824076;24;20053;-96
2021/04/23 12:34:28;;;;;;;;;;;22.50;22.80;;;;;;4771173;29;20049;-96
2021/04/23 12:37:12;;;;;;;25.42;5.25;;;22.50;22.90;;;;;;4781589;29;20002;-96
2021/04/23 12:40:06;;;;;;;23.58;4.32;;;22.40;23.00;;;;;;4825017;24;20046;-95
2021/04/23 12:42:36;;;;;;;23.55;4.53;;;22.20;23.10;;;;;;4782693;29;20037;-95
2021/04/23 12:45:20;;;;;;;19.70;3.70;;;22.00;23.40;;;;;;4747523;29;20042;-96
2021/04/23 12:50:40;;;;;;;42.33;6.40;;;21.80;23.90;;;;;;4955280;24;20064;-95
2021/04/23 12:53:10;;;;;;;22.30;4.95;;;21.80;23.80;;;;;;4787260;29;20064;-94
2021/04/23 12:55:57;;;;;;;22.63;4.38;;;21.80;23.90;;;;;;4779361;29;20549;-94
2021/04/23 12:58:26;;;;;;;11.23;3.22;;;21.70;24.00;;;;;;4849649;24;20047;-95
2021/04/23 13:00:53;;;;;;;30.63;5.07;;;21.70;24.10;;;;;;5242676;24;20057;-96
2021/04/23 13:03:23;;;;;;;30.55;5.63;;;21.70;24.10;;;;;;4756779;29;20114;-94
2021/04/23 13:05:50;;;;;;;30.52;5.13;;;21.60;24.30;;;;;;4785253;29;20042;-94
2021/04/23 13:08:20;;;;;;;32.67;6.88;;;21.60;24.50;;;;;;4767327;29;20053;-96
2021/04/23 13:10:48;;;;;;;17.63;3.70;;;21.60;24.60;;;;;;4784095;29;20152;-94
2021/04/23 13:13:23;;;;;;;9.65;3.10;;;21.60;24.60;;;;;;4782202;29;20046;-96
2021/04/23 13:16:04;;;;;;;36.03;6.18;;;21.50;24.70;;;;;;4808477;29;20038;-96
2021/04/23 13:18:32;;;;;;;25.73;5.55;;;21.50;24.90;;;;;;4865712;24;20057;-88
2021/04/23 13:21:09;;;;;;;33.70;5.50;;;21.50;25.00;;;;;;4796648;29;20081;-89
2021/04/23 13:23:51;;;;;;;17.20;3.78;;;21.50;25.10;;;;;;4778998;29;20144;-88
2021/04/23 13:26:30;;;;;;;32.78;5.25;;;21.50;25.10;;;;;;4824345;29;20042;-89
2021/04/23 13:29:12;;;;;;;35.58;5.25;;;21.50;25.00;;;;;;4807724;29;20046;-91
2021/04/23 13:31:38;;;;;;;38.03;5.63;;;21.50;25.10;;;;;;4806383;29;20046;-89
2021/04/23 13:34:16;;;;;;;16.70;3.13;;;21.50;25.20;;;;;;4758400;29;20056;-89
2021/04/23 13:36:51;;;;;;;18.77;4.25;;;21.50;25.20;;;;;;4820624;29;20118;-90
2021/04/23 13:39:24;;;;;;;11.00;2.80;;;21.50;25.30;;;;;;4775227;29;20065;-90
2021/04/23 13:42:04;;;;;;;18.15;3.47;;;21.40;25.40;;;;;;4791864;29;20557;-88
2021/04/23 13:44:34;;;;;;;20.58;4.32;;;21.30;25.60;;;;;;4818783;29;20148;-90
2021/04/23 13:47:14;;;;;;;12.48;3.22;;;21.10;25.90;;;;;;4819463;29;20149;-90
2021/04/23 13:49:56;;;;;;;24.83;5.18;;;20.90;26.10;;;;;;4788709;29;20042;-90
2021/04/23 13:52:24;;;;;;;14.18;3.28;;;20.90;26.30;;;;;;4804411;29;20038;-90
2021/04/23 13:54:50;;;;;;;7.93;3.10;;;20.90;26.30;;;;;;4796009;29;20098;-89
2021/04/23 13:57:20;;;;;;;22.90;4.38;;;21.00;26.40;;;;;;4811615;29;20053;-88
2021/04/23 13:59:48;;;;;;;11.18;2.78;;;20.90;26.60;;;;;;4807982;29;20051;-91
2021/04/23 14:02:18;;;;;;;9.73;2.72;;;20.90;26.70;;;;;;4787669;29;20042;-90
2021/04/23 14:04:44;;;;;;;9.32;3.88;;;20.80;26.80;;;;;;4787549;29;20056;-90
2021/04/23 14:07:16;;;;;;;24.58;4.90;;;20.70;27.10;;;;;;4789898;29;20046;-89
2021/04/23 14:09:43;;;;;;;13.63;3.28;;;20.60;27.30;;;;;;4804977;29;20037;-89
2021/04/23 14:12:12;;;;;;;19.80;4.97;;;20.50;27.50;;;;;;4787355;29;20061;-89
2021/04/23 14:14:39;;;;;;;26.75;4.88;;;20.50;27.70;;;;;;4802837;29;20041;-89
2021/04/23 14:17:11;;;;;;;28.08;5.68;;;20.50;27.70;;;;;;4785761;29;20465;-90
2021/04/23 14:19:39;;;;;;;15.93;3.75;;;20.50;27.60;;;;;;4787128;29;20132;-91
2021/04/23 14:22:08;;;;;;;7.65;2.33;;;20.60;27.70;;;;;;4787726;29;20090;-89
2021/04/23 14:24:40;;;;;;;13.35;2.80;;;20.60;27.80;;;;;;4773589;29;20038;-93
2021/04/23 14:27:07;;;;;;;20.45;4.35;;;20.50;27.80;;;;;;4787395;29;20054;-91
2021/04/23 14:29:34;;;;;;;21.20;4.05;;;20.50;28.90;;;;;;4775614;29;20045;-90
2021/04/23 14:32:00;;;;;;;21.38;4.30;;;20.40;28.00;;;;;;4790339;29;20052;-92
2021/04/23 14:34:26;;;;;;;;;;;20.40;28.00;;;;;;4772910;29;20565;-92
2021/04/23 14:36:53;;;;;;;27.42;4.10;;;20.40;28.00;;;;;;4787008;29;20484;-92
2021/04/23 14:39:19;;;;;;;;;;;20.40;28.00;;;;;;4784289;29;20161;-91
2021/04/23 14:41:47;;;;;;;14.07;3.20;;;20.40;28.00;;;;;;4785718;29;19928;-92
2021/04/23 14:44:18;;;;;;;21.65;4.20;;;20.40;28.00;;;;;;4769227;29;20038;-91
2021/04/23 14:46:55;;;;;;;20.27;4.93;;;20.40;28.10;;;;;;4788146;29;20046;-92
2021/04/23 14:52:04;;;;;;;22.52;4.88;;;20.30;28.20;;;;;;5788717;24;20012;-91
2021/04/23 14:54:45;;;;;;;27.95;5.10;;;20.30;28.30;;;;;;4826417;29;20053;-92
2021/04/23 14:57:24;;;;;;;22.13;5.20;;;20.30;28.30;;;;;;4823714;29;20120;-90
2021/04/23 14:59:53;;;;;;;25.23;5.47;;;20.30;28.30;;;;;;4797215;29;20037;-92
2021/04/23 15:02:25;;;;;;;20.35;4.80;;;20.30;28.40;;;;;;4799493;29;20041;-90
2021/04/23 15:04:53;;;;;;;29.02;5.32;;;20.30;28.60;;;;;;4813946;29;20057;-92
2021/04/23 15:07:42;;;;;;;21.33;4.80;;;20.20;28.50;;;;;;4788711;29;20144;-92
2021/04/23 15:10:15;;;;;;;22.98;4.75;;;20.20;28.60;;;;;;4792114;29;20110;-92
2021/04/23 15:13:13;;;;;;;23.85;5.20;;;20.20;28.60;;;;;;4806856;29;20050;-91
2021/04/23 15:15:41;;;;;;;33.10;5.68;;;20.20;28.60;;;;;;4811448;29;20117;-90
2021/04/23 15:18:14;;;;;;;19.65;4.93;;;20.10;28.50;;;;;;4800154;29;20042;-91
2021/04/23 15:20:43;;;;;;;20.85;4.55;;;20.20;28.50;;;;;;4811365;29;20086;-90
2021/04/23 15:23:21;;;;;;;31.65;5.38;;;20.20;28.50;;;;;;4815171;29;20030;-92
2021/04/23 15:25:53;;;;;;;30.35;6.07;;;20.20;28.30;;;;;;4832103;29;20065;-90
2021/04/23 15:28:21;;;;;;;39.17;6.43;;;20.20;28.30;;;;;;4833074;29;20079;-93
2021/04/23 15:30:51;;;;;;;36.67;6.72;;;20.20;28.50;;;;;;4832604;29;20018;-92
2021/04/23 15:33:22;;;;;;;42.53;6.75;;;20.20;28.50;;;;;;4818242;29;20125;-93
2021/04/23 15:35:48;;;;;;;34.30;6.03;;;20.10;28.60;;;;;;4817500;29;20050;-92
2021/04/23 15:38:23;;;;;;;35.13;6.15;;;20.00;28.70;;;;;;4803390;29;20101;-90
2021/04/23 15:40:56;;;;;;;40.28;6.70;;;19.90;28.80;;;;;;4803295;29;20146;-92
2021/04/23 15:43:25;;;;;;;34.63;6.07;;;19.90;28.90;;;;;;4789057;30;20053;-93
2021/04/23 15:46:01;;;;;;;39.55;6.63;;;19.80;29.00;;;;;;4734760;30;20063;-92
2021/04/23 15:56:27;;;;;;;41.05;6.55;;;19.50;29.60;;;;;;4769217;30;20058;-92
2021/04/23 16:07:37;;;;;;;40.45;7.35;;;19.10;30.10;;;;;;4691721;30;20052;-94
2021/04/23 16:10:14;;;;;;;59.22;7.80;;;19.00;30.10;;;;;;4651053;30;20102;-94
2021/04/23 16:13:06;;;;;;;30.88;5.97;;;18.90;30.40;;;;;;4653277;30;20694;-92
2021/04/23 16:20:27;;;;;;;31.50;5.53;;;18.60;31.40;;;;;;4618616;31;20158;-94
2021/04/23 16:31:59;;;;;;;40.85;6.10;;;17.90;32.70;;;;;;4638017;31;20089;-94
2021/04/23 16:38:32;;;;;;;30.23;5.60;;;17.70;33.10;;;;;;4639289;31;20070;-91
2021/04/23 16:41:11;;;;;;;28.23;5.28;;;17.60;33.50;;;;;;4618758;30;20046;-95
2021/04/23 16:43:41;;;;;;;25.40;4.63;;;17.60;33.60;;;;;;4666364;30;20044;-95
2021/04/23 16:46:51;;;;;;;28.52;5.43;;;17.60;33.80;;;;;;4672486;30;20076;-94
2021/04/23 16:53:48;;;;;;;30.60;5.10;;;17.40;33.90;;;;;;4776224;30;20041;-92
2021/04/23 16:59:58;;;;;;;33.35;4.97;;;17.30;34.20;;;;;;4815134;29;20046;-90
2021/04/23 17:15:27;;;;;;;36.90;6.55;;;17.00;35.10;;;;;;4817032;29;20046;-95
2021/04/23 17:17:59;;;;;;;32.00;5.45;;;16.90;35.20;;;;;;4795386;29;20027;-90
2021/04/23 17:20:35;;;;;;;26.75;5.53;;;16.90;35.30;;;;;;4778041;29;20054;-90
2021/04/23 17:23:28;;;;;;;15.43;4.63;;;16.80;35.60;;;;;;4776437;29;20050;-92